Terminal Aerodrome Forecast
Issued by NWS

Home | Current Version | Previous Version | Text Only | Print | Product List | Glossary On
Versions: 1 2 3 4 5 6 7 8 9 10 11 12
000
FTUS45 KABQ 291140
TAFFMN
TAF
KFMN 291140Z 2912/3012 09007KT P6SM SKC
     FM291900 29008KT P6SM FEW100
     FM300200 11010KT P6SM SCT100=

USA.gov is the U.S. government's official web portal to all federal, state and local government web resources and services.